Time;durP1;ratioP1;P1;durP2;ratioP2;P2;SDS_P1;SDS_P2;PMS_P1;PMS_P2;Temp;Humidity;BMP_temperature;BMP_pressure;BME280_temperature;BME280_humidity;BME280_pressure;Samples;Min_cycle;Max_cycle;Signal;HPM_P1;HPM_P2
2023/05/30 10:52:31;;;;;;;6.12;3.80;;;;;;;27.02;39.21;99660.31;4439469;32;33945;-67
2023/05/30 10:55:00;;;;;;;9.15;4.32;;;;;;;27.08;39.23;99653.94;4451538;32;33531;-67
2023/05/30 10:57:34;;;;;;;6.53;4.28;;;;;;;27.28;39.94;99657.37;4451824;32;34921;-68
2023/05/30 11:00:17;;;;;;;10.23;4.93;;;;;;;27.32;38.32;99649.50;4449720;32;33902;-68
2023/05/30 11:02:54;;;;;;;8.25;3.45;;;;;;;27.15;39.32;99646.50;4449276;32;33901;-68
2023/05/30 11:05:32;;;;;;;6.15;3.80;;;;;;;27.56;38.11;99643.13;4446469;32;33890;-67
2023/05/30 11:08:01;;;;;;;7.62;3.72;;;;;;;27.52;39.00;99644.66;4447929;32;33689;-71
2023/05/30 11:10:30;;;;;;;6.40;3.80;;;;;;;27.87;36.65;99638.59;4450491;32;33939;-71
2023/05/30 11:13:09;;;;;;;11.63;3.85;;;;;;;27.76;37.25;99633.81;4443116;32;35174;-72
2023/05/30 11:15:42;;;;;;;10.73;4.20;;;;;;;27.68;37.48;99642.37;4447781;32;33980;-73
2023/05/30 11:18:14;;;;;;;12.75;5.25;;;;;;;27.48;37.71;99643.44;4449841;32;34617;-69
2023/05/30 11:20:53;;;;;;;8.93;4.37;;;;;;;27.81;37.29;99634.84;4446558;32;33708;-73
2023/05/30 11:23:23;;;;;;;8.68;4.50;;;;;;;27.34;38.30;99642.72;4446308;32;33064;-71
2023/05/30 11:25:53;;;;;;;9.07;4.10;;;;;;;26.89;38.44;99634.63;4448297;32;34138;-69
2023/05/30 11:28:35;;;;;;;7.07;4.05;;;;;;;26.99;36.67;99634.13;4441188;32;32130;-70
2023/05/30 11:31:17;;;;;;;9.00;5.07;;;;;;;27.09;37.18;99628.13;4450027;32;32803;-70
2023/05/30 11:33:51;;;;;;;8.55;4.82;;;;;;;26.53;39.17;99632.59;4448961;32;32581;-71
2023/05/30 11:36:20;;;;;;;;;;;;;;;26.81;38.12;99628.59;4449667;32;33457;-69
2023/05/30 11:38:47;;;;;;;7.55;4.70;;;;;;;26.53;39.11;99623.53;4448669;32;33399;-71
2023/05/30 11:41:15;;;;;;;8.10;3.78;;;;;;;26.87;38.32;99625.81;4444389;32;33808;-70
2023/05/30 11:43:44;;;;;;;10.00;4.55;;;;;;;27.05;38.20;99629.66;4451301;32;35045;-71
2023/05/30 11:50:40;;;;;;;7.03;3.78;;;;;;;27.66;37.75;99622.53;4437423;32;33248;-70
2023/05/30 11:53:12;;;;;;;7.35;3.90;;;;;;;27.25;37.98;99619.34;4452476;32;34610;-72
2023/05/30 11:55:46;;;;;;;6.95;4.15;;;;;;;27.31;37.46;99620.34;4451027;32;33696;-72
2023/05/30 11:58:14;;;;;;;9.20;4.65;;;;;;;27.52;37.46;99611.69;4438564;32;35098;-70
2023/05/30 12:00:43;;;;;;;7.07;3.80;;;;;;;27.06;38.32;99612.97;4450352;32;34532;-70
2023/05/30 12:03:18;;;;;;;9.25;4.28;;;;;;;26.85;39.23;99610.63;4448720;32;33618;-70
2023/05/30 12:05:47;;;;;;;11.82;4.28;;;;;;;27.15;39.29;99600.62;4441426;32;34951;-72
2023/05/30 12:08:18;;;;;;;8.25;4.10;;;;;;;27.20;38.26;99608.22;4442377;32;35748;-70
2023/05/30 12:10:49;;;;;;;8.05;4.62;;;;;;;27.58;38.07;99605.28;4448401;32;33283;-70
2023/05/30 12:13:20;;;;;;;7.40;4.25;;;;;;;26.92;38.58;99609.47;4448752;32;34219;-72
2023/05/30 12:15:49;;;;;;;7.60;4.75;;;;;;;27.52;37.30;99617.19;4441880;32;32954;-71
2023/05/30 12:18:17;;;;;;;7.68;4.53;;;;;;;27.09;37.95;99612.50;4438852;32;32932;-75
2023/05/30 12:20:45;;;;;;;8.40;4.25;;;;;;;27.27;38.15;99611.72;4437176;32;34522;-74
2023/05/30 12:23:13;;;;;;;16.92;4.00;;;;;;;27.39;38.94;99612.66;4440989;32;33970;-73
2023/05/30 12:25:51;;;;;;;7.85;3.28;;;;;;;27.51;37.99;99603.66;4445614;32;32855;-71
2023/05/30 12:28:19;;;;;;;7.57;3.83;;;;;;;26.36;37.54;99610.31;4445942;32;35072;-72
2023/05/30 12:30:50;;;;;;;8.60;4.57;;;;;;;27.13;37.03;99601.91;4448631;32;33153;-73
2023/05/30 12:33:18;;;;;;;7.03;3.53;;;;;;;26.94;37.75;99593.62;4442850;32;33986;-71
2023/05/30 12:35:46;;;;;;;8.02;4.37;;;;;;;27.33;36.90;99599.84;4439706;32;34068;-74
2023/05/30 12:38:14;;;;;;;7.22;4.28;;;;;;;27.04;38.66;99595.88;4447432;32;33986;-74
2023/05/30 12:40:45;;;;;;;7.53;3.95;;;;;;;26.88;38.08;99590.94;4448346;32;32081;-76
2023/05/30 12:43:24;;;;;;;9.82;4.75;;;;;;;26.91;37.56;99590.50;4452556;32;33796;-71
2023/05/30 12:45:52;;;;;;;9.48;5.12;;;;;;;27.21;37.41;99590.66;4447254;32;34054;-73
2023/05/30 12:48:20;;;;;;;7.35;4.50;;;;;;;27.54;36.60;99586.69;4447187;32;33879;-73
2023/05/30 12:50:47;;;;;;;7.43;3.65;;;;;;;27.76;36.85;99581.56;4444341;32;35302;-76
2023/05/30 12:53:15;;;;;;;6.50;3.97;;;;;;;27.83;35.70;99582.34;4433634;32;32765;-73
2023/05/30 12:55:42;;;;;;;7.80;4.43;;;;;;;28.02;35.52;99586.75;4446615;32;35533;-77
2023/05/30 12:58:10;;;;;;;6.45;3.72;;;;;;;27.98;35.28;99581.97;4438682;32;33905;-75
2023/05/30 13:00:38;;;;;;;7.95;4.00;;;;;;;27.59;36.08;99587.69;4443758;32;33499;-74
2023/05/30 13:03:05;;;;;;;9.95;4.40;;;;;;;27.64;36.21;99578.78;4444714;32;34007;-73
2023/05/30 13:05:33;;;;;;;8.85;4.60;;;;;;;27.08;36.34;99582.50;4445434;32;34023;-76
2023/05/30 13:08:00;;;;;;;8.18;4.32;;;;;;;27.97;35.37;99572.88;4438998;32;32890;-73
2023/05/30 13:10:28;;;;;;;7.20;3.92;;;;;;;28.16;34.79;99576.41;4443703;32;33693;-73
2023/05/30 13:12:56;;;;;;;9.82;4.30;;;;;;;28.38;33.92;99570.38;4443479;32;34684;-72
2023/05/30 13:15:26;;;;;;;6.60;3.87;;;;;;;27.80;34.59;99564.44;4444564;32;32741;-72
2023/05/30 13:17:54;;;;;;;8.20;4.55;;;;;;;27.21;35.78;99571.41;4449958;32;34208;-72
2023/05/30 13:20:21;;;;;;;8.82;3.97;;;;;;;27.96;34.54;99564.84;4446914;32;34533;-72
2023/05/30 13:22:49;;;;;;;8.05;4.18;;;;;;;28.28;34.72;99566.31;4452047;32;33701;-76
2023/05/30 13:25:17;;;;;;;8.68;3.90;;;;;;;28.07;34.37;99566.81;4450196;32;33636;-72
2023/05/30 13:27:46;;;;;;;10.10;4.43;;;;;;;27.58;34.68;99572.28;4445872;32;32789;-71
2023/05/30 13:30:13;;;;;;;9.82;3.85;;;;;;;27.59;34.73;99567.63;4440609;32;33551;-71
2023/05/30 13:32:41;;;;;;;6.82;4.03;;;;;;;28.29;33.42;99551.47;4448411;32;34061;-76
2023/05/30 13:35:09;;;;;;;7.05;3.85;;;;;;;28.10;34.27;99563.59;4447652;32;33990;-72
2023/05/30 13:37:36;;;;;;;7.70;3.97;;;;;;;27.70;34.76;99560.50;4449099;32;33653;-73
2023/05/30 13:40:04;;;;;;;8.00;3.70;;;;;;;27.95;34.04;99568.66;4445977;32;33455;-73
2023/05/30 13:42:32;;;;;;;9.00;4.00;;;;;;;28.24;33.83;99564.22;4446557;32;32815;-78
2023/05/30 13:44:59;;;;;;;7.25;3.75;;;;;;;28.04;33.45;99570.88;4441990;32;34255;-72
2023/05/30 13:47:28;;;;;;;7.65;4.75;;;;;;;27.83;34.77;99568.59;4441889;32;33649;-76
2023/05/30 13:49:57;;;;;;;11.60;4.28;;;;;;;28.48;32.76;99565.19;4444450;32;33609;-71
2023/05/30 13:52:24;;;;;;;8.68;4.32;;;;;;;28.43;32.39;99568.63;4444675;32;34783;-78
2023/05/30 13:54:52;;;;;;;6.72;4.50;;;;;;;28.26;33.07;99564.84;4445434;32;34455;-75
2023/05/30 13:57:20;;;;;;;7.65;4.35;;;;;;;28.47;32.62;99557.97;4443349;32;33938;-78
2023/05/30 13:59:47;;;;;;;8.25;3.85;;;;;;;28.19;32.99;99562.19;4445842;32;33007;-77
2023/05/30 14:02:16;;;;;;;7.85;4.22;;;;;;;28.12;33.66;99564.19;4446922;32;32730;-73
2023/05/30 14:04:43;;;;;;;11.70;4.20;;;;;;;28.01;33.32;99554.81;4442152;32;34880;-72
2023/05/30 14:07:13;;;;;;;9.15;4.05;;;;;;;27.98;32.90;99551.69;4444541;32;32762;-72
2023/05/30 14:09:40;;;;;;;8.30;4.50;;;;;;;27.91;33.14;99542.72;4449602;32;33597;-75
2023/05/30 14:12:08;;;;;;;8.27;3.83;;;;;;;28.22;33.31;99542.47;4451909;32;34643;-71
2023/05/30 14:14:36;;;;;;;6.53;4.07;;;;;;;27.62;34.03;99542.41;4439610;32;32542;-76
2023/05/30 14:17:04;;;;;;;9.02;4.68;;;;;;;28.00;33.09;99542.16;4444666;32;33921;-74
2023/05/30 14:19:32;;;;;;;8.55;4.35;;;;;;;28.15;33.10;99543.63;4443510;32;33486;-73
2023/05/30 14:22:00;;;;;;;7.45;4.37;;;;;;;28.12;32.88;99544.09;4440414;32;34779;-73
2023/05/30 14:24:28;;;;;;;10.57;4.57;;;;;;;28.16;32.70;99550.81;4446846;32;34008;-76
2023/05/30 14:26:55;;;;;;;7.30;4.22;;;;;;;28.05;33.31;99557.94;4438472;32;33937;-74
2023/05/30 14:29:23;;;;;;;7.03;4.18;;;;;;;27.89;33.23;99555.84;4451767;32;33629;-76
2023/05/30 14:31:50;;;;;;;6.80;4.20;;;;;;;27.78;33.85;99566.56;4453478;32;33874;-74
2023/05/30 14:34:18;;;;;;;8.45;4.12;;;;;;;27.85;33.38;99566.47;4449645;32;33928;-77
2023/05/30 14:36:46;;;;;;;10.57;4.72;;;;;;;27.80;34.24;99577.31;4447609;32;35088;-75
2023/05/30 14:39:14;;;;;;;7.07;3.75;;;;;;;27.94;33.78;99589.00;4438786;32;31937;-75
2023/05/30 14:41:42;;;;;;;7.28;3.95;;;;;;;27.90;33.82;99585.00;4438661;32;32574;-75
2023/05/30 14:44:10;;;;;;;6.97;4.12;;;;;;;27.84;33.80;99590.37;4444754;32;33859;-76
2023/05/30 14:46:38;;;;;;;8.48;4.28;;;;;;;27.81;33.44;99584.50;4450993;32;35430;-75
2023/05/30 14:49:06;;;;;;;8.32;5.25;;;;;;;27.89;33.55;99591.59;4445699;32;33456;-73
2023/05/30 14:51:34;;;;;;;10.07;4.85;;;;;;;26.90;35.38;99602.53;4442394;32;34939;-72
2023/05/30 14:54:02;;;;;;;13.05;6.10;;;;;;;26.78;37.18;99607.91;4445333;32;34682;-77
2023/05/30 14:56:32;;;;;;;9.90;5.37;;;;;;;25.40;40.47;99627.53;4447802;32;33708;-76
2023/05/30 14:59:00;;;;;;;12.70;5.00;;;;;;;25.46;40.98;99669.69;4444545;32;33654;-79
2023/05/30 15:01:28;;;;;;;11.35;6.47;;;;;;;22.98;43.93;99687.19;4451297;32;33974;-73
2023/05/30 15:04:11;;;;;;;9.65;4.87;;;;;;;22.50;46.95;99706.84;4440724;32;35065;-72
2023/05/30 15:06:39;;;;;;;15.18;5.53;;;;;;;23.02;49.72;99694.81;4444727;32;33330;-72
2023/05/30 15:09:08;;;;;;;10.70;4.53;;;;;;;22.87;52.93;99691.28;4441519;32;33821;-78
2023/05/30 15:11:35;;;;;;;14.48;6.40;;;;;;;22.30;53.94;99694.84;4446330;32;33799;-70
2023/05/30 15:14:03;;;;;;;10.23;4.90;;;;;;;22.36;53.70;99706.88;4442899;32;33929;-80
2023/05/30 15:16:30;;;;;;;9.93;4.85;;;;;;;22.23;53.98;99697.50;4451071;32;34904;-72
2023/05/30 15:18:58;;;;;;;8.93;5.00;;;;;;;21.41;55.55;99689.44;4449761;32;33173;-73
2023/05/30 15:21:26;;;;;;;6.32;3.37;;;;;;;22.01;53.74;99668.47;4445584;32;33858;-75
2023/05/30 15:23:53;;;;;;;8.43;4.10;;;;;;;21.74;53.62;99659.97;4444089;32;35016;-74
2023/05/30 15:26:21;;;;;;;8.77;4.20;;;;;;;21.48;54.28;99679.50;4442221;32;34701;-74
2023/05/30 15:28:48;;;;;;;6.75;3.75;;;;;;;21.62;53.73;99672.38;4451505;32;33474;-72
2023/05/30 15:31:19;;;;;;;16.67;5.95;;;;;;;21.25;55.47;99673.22;4452013;32;32499;-76
2023/05/30 15:33:47;;;;;;;11.80;4.80;;;;;;;21.82;56.12;99681.66;4450429;32;34981;-73
2023/05/30 15:36:15;;;;;;;10.60;4.72;;;;;;;21.91;54.45;99676.94;4450391;32;33663;-76
2023/05/30 15:38:42;;;;;;;11.23;5.00;;;;;;;21.33;54.71;99670.44;4448145;32;32345;-74
2023/05/30 15:41:10;;;;;;;8.40;5.00;;;;;;;21.57;55.33;99674.78;4441996;32;33833;-73
2023/05/30 15:43:38;;;;;;;10.13;4.43;;;;;;;20.66;58.12;99680.19;4437860;32;33563;-72
2023/05/30 15:46:06;;;;;;;7.05;4.80;;;;;;;20.81;57.52;99679.44;4444568;32;34066;-74
2023/05/30 15:48:33;;;;;;;8.50;3.90;;;;;;;21.20;56.46;99686.56;4443103;32;35881;-73
2023/05/30 15:51:02;;;;;;;9.32;4.82;;;;;;;21.24;55.53;99682.44;4441006;32;33123;-75
2023/05/30 15:53:29;;;;;;;8.63;4.40;;;;;;;21.75;54.18;99682.59;4442785;32;35057;-74
2023/05/30 15:55:58;;;;;;;10.35;5.15;;;;;;;21.53;54.77;99685.22;4442663;32;33591;-73
2023/05/30 15:58:25;;;;;;;8.73;3.72;;;;;;;21.59;53.09;99673.59;4441047;32;32362;-72
2023/05/30 16:00:53;;;;;;;8.82;3.60;;;;;;;21.52;53.55;99666.34;4441586;32;33928;-71
2023/05/30 16:03:20;;;;;;;7.10;4.10;;;;;;;21.71;54.04;99667.69;4441299;32;32806;-74
2023/05/30 16:05:48;;;;;;;9.13;4.18;;;;;;;21.62;54.64;99666.91;4439735;32;35471;-76
2023/05/30 16:08:15;;;;;;;9.32;5.43;;;;;;;21.78;53.79;99655.81;4448796;32;34533;-72
2023/05/30 16:10:43;;;;;;;8.18;4.78;;;;;;;21.68;55.51;99668.06;4449032;32;32410;-74
2023/05/30 16:13:11;;;;;;;4.87;2.95;;;;;;;21.71;54.96;99654.91;4446564;32;34060;-72
2023/05/30 16:15:38;;;;;;;8.43;3.95;;;;;;;21.75;54.52;99648.03;4450902;32;32632;-75
2023/05/30 16:18:06;;;;;;;7.40;3.75;;;;;;;21.77;54.88;99643.25;4445574;32;33522;-78
2023/05/30 16:20:34;;;;;;;7.75;3.37;;;;;;;21.96;56.08;99649.13;4448196;32;32361;-72
2023/05/30 16:23:01;;;;;;;7.82;4.07;;;;;;;22.07;54.46;99640.47;4444363;32;33384;-72
2023/05/30 16:25:29;;;;;;;9.88;4.70;;;;;;;21.88;54.88;99628.28;4446431;32;33522;-68
2023/05/30 16:27:56;;;;;;;8.30;4.37;;;;;;;21.97;54.55;99626.31;4448675;32;34718;-72
2023/05/30 16:30:24;;;;;;;7.25;3.75;;;;;;;22.10;54.20;99621.00;4448509;32;34833;-69
2023/05/30 16:32:52;;;;;;;7.80;5.15;;;;;;;21.95;54.35;99618.31;4447532;32;33999;-69
2023/05/30 16:35:19;;;;;;;7.65;3.97;;;;;;;22.01;54.37;99614.81;4452228;32;34129;-68
2023/05/30 16:37:47;;;;;;;6.60;3.37;;;;;;;22.03;54.72;99615.47;4454506;32;34522;-70
2023/05/30 16:40:15;;;;;;;5.12;3.37;;;;;;;22.02;54.68;99613.81;4454728;32;33981;-69
2023/05/30 16:42:42;;;;;;;9.88;3.67;;;;;;;22.10;55.45;99610.94;4456325;32;34945;-69
2023/05/30 16:45:10;;;;;;;8.48;4.57;;;;;;;22.26;56.09;99604.44;4455511;32;34279;-69
2023/05/30 16:47:38;;;;;;;10.63;4.72;;;;;;;22.27;56.25;99602.56;4452873;32;33384;-68
2023/05/30 16:50:06;;;;;;;11.30;4.05;;;;;;;22.32;56.74;99600.09;4455879;32;33879;-68
2023/05/30 16:52:34;;;;;;;12.57;4.95;;;;;;;22.06;58.10;99611.53;4450926;32;34181;-71
2023/05/30 16:55:01;;;;;;;12.60;5.22;;;;;;;22.25;58.13;99610.09;4447090;32;33744;-67
2023/05/30 16:57:29;;;;;;;7.12;4.20;;;;;;;22.33;58.19;99607.22;4448141;32;33647;-67
2023/05/30 16:59:57;;;;;;;12.85;4.20;;;;;;;22.50;57.48;99611.41;4448547;32;32595;-68
2023/05/30 17:02:25;;;;;;;8.63;4.32;;;;;;;22.40;56.61;99615.47;4444660;32;33982;-68
2023/05/30 17:04:53;;;;;;;9.05;4.95;;;;;;;22.66;55.89;99606.69;4449106;32;35182;-68
2023/05/30 17:07:20;;;;;;;6.82;3.97;;;;;;;22.84;55.22;99607.06;4449097;32;35646;-66
2023/05/30 17:09:49;;;;;;;8.50;4.32;;;;;;;22.73;55.76;99599.44;4453337;32;33863;-68
2023/05/30 17:12:17;;;;;;;5.80;3.78;;;;;;;22.84;55.48;99600.78;4449132;32;35449;-67
2023/05/30 17:14:44;;;;;;;7.15;4.25;;;;;;;22.91;55.58;99599.78;4451150;32;35141;-69
2023/05/30 17:17:12;;;;;;;8.13;4.65;;;;;;;22.88;55.51;99597.44;4452313;32;34389;-72
2023/05/30 17:19:40;;;;;;;8.70;4.20;;;;;;;22.83;54.87;99599.94;4446785;32;32739;-64
2023/05/30 17:22:07;;;;;;;9.93;4.35;;;;;;;22.73;55.77;99613.09;4448832;32;33978;-66
2023/05/30 17:24:35;;;;;;;10.18;5.30;;;;;;;22.77;56.18;99609.75;4449723;32;35132;-65
2023/05/30 17:27:03;;;;;;;7.12;4.40;;;;;;;22.75;56.37;99614.53;4443366;32;34629;-66
2023/05/30 17:29:30;;;;;;;14.60;5.75;;;;;;;22.82;57.02;99614.59;4449236;32;34892;-67
2023/05/30 17:31:59;;;;;;;11.15;4.28;;;;;;;22.89;57.09;99615.53;4449925;32;34002;-66
2023/05/30 17:34:27;;;;;;;8.52;4.47;;;;;;;22.95;56.32;99622.97;4445257;32;34183;-69
2023/05/30 17:36:54;;;;;;;9.40;4.07;;;;;;;22.78;57.89;99626.97;4446382;32;33226;-67
2023/05/30 17:39:23;;;;;;;11.35;5.32;;;;;;;22.84;57.88;99633.53;4447558;32;33582;-66
2023/05/30 17:41:50;;;;;;;8.40;4.10;;;;;;;22.70;58.20;99632.56;4452347;32;34548;-66
2023/05/30 17:44:18;;;;;;;13.93;4.47;;;;;;;22.81;58.40;99642.09;4449422;32;32949;-70
2023/05/30 17:46:46;;;;;;;9.52;4.82;;;;;;;22.54;59.92;99642.69;4447470;32;33756;-68
2023/05/30 17:49:14;;;;;;;8.85;5.18;;;;;;;22.90;58.64;99647.22;4444029;32;32364;-68
2023/05/30 17:51:41;;;;;;;9.00;4.10;;;;;;;23.00;58.56;99652.38;4447313;32;33808;-69
2023/05/30 17:54:09;;;;;;;8.07;4.53;;;;;;;23.01;58.50;99654.88;4445572;32;33709;-70
2023/05/30 17:56:37;;;;;;;7.28;4.55;;;;;;;23.00;57.97;99658.66;4445267;32;33645;-67
2023/05/30 17:59:07;;;;;;;8.82;4.05;;;;;;;23.15;57.68;99664.03;4445441;32;35134;-66
2023/05/30 18:01:34;;;;;;;7.95;4.68;;;;;;;23.25;57.46;99674.63;4440514;32;35308;-67
2023/05/30 18:04:02;;;;;;;12.30;4.37;;;;;;;23.25;58.09;99669.16;4449581;32;33918;-69
2023/05/30 18:06:32;;;;;;;9.05;4.80;;;;;;;23.16;58.59;99670.34;4451758;32;34718;-68
2023/05/30 18:08:59;;;;;;;9.45;4.15;;;;;;;23.27;58.58;99674.41;4448254;32;33749;-69
2023/05/30 18:11:27;;;;;;;6.65;3.53;;;;;;;23.27;58.88;99671.69;4449968;32;33755;-72
2023/05/30 18:13:55;;;;;;;7.12;3.95;;;;;;;23.37;58.62;99675.75;4452705;32;34977;-74
2023/05/30 18:16:22;;;;;;;8.77;4.50;;;;;;;23.35;58.59;99675.09;4446159;32;33352;-75
2023/05/30 18:18:50;;;;;;;9.30;4.47;;;;;;;23.44;58.37;99682.09;4441405;32;34645;-73
2023/05/30 18:21:18;;;;;;;12.13;4.87;;;;;;;23.37;58.59;99675.75;4444083;32;33978;-70
2023/05/30 18:23:45;;;;;;;6.22;3.83;;;;;;;23.37;58.14;99675.75;4452672;32;33865;-72
2023/05/30 18:26:13;;;;;;;9.80;4.53;;;;;;;23.24;58.08;99681.09;4448832;32;34588;-75
2023/05/30 18:28:41;;;;;;;7.18;3.78;;;;;;;23.23;57.53;99684.88;4448309;32;34000;-71
2023/05/30 18:31:08;;;;;;;6.90;4.10;;;;;;;23.12;57.64;99679.97;4446780;32;33923;-73
2023/05/30 18:33:36;;;;;;;7.97;4.22;;;;;;;23.14;57.62;99680.59;4443723;32;34745;-72
2023/05/30 18:36:04;;;;;;;8.60;4.90;;;;;;;23.16;57.90;99687.56;4449755;32;33768;-72
2023/05/30 18:38:42;;;;;;;7.22;4.15;;;;;;;23.03;59.00;99692.91;4442402;32;33970;-77
2023/05/30 18:41:14;;;;;;;6.37;3.55;;;;;;;23.11;58.74;99692.75;4442441;32;34415;-75
2023/05/30 18:43:43;;;;;;;8.07;4.85;;;;;;;23.08;58.44;99695.03;4448677;32;33852;-77
2023/05/30 18:46:11;;;;;;;7.75;4.12;;;;;;;23.04;58.31;99701.94;4453536;32;32367;-76
2023/05/30 18:48:38;;;;;;;6.03;3.42;;;;;;;23.03;58.44;99701.09;4452736;32;33286;-73
2023/05/30 18:51:16;;;;;;;8.18;3.90;;;;;;;23.07;58.20;99701.56;4443076;32;33850;-68
2023/05/30 18:53:44;;;;;;;8.68;4.97;;;;;;;23.09;57.76;99708.50;4442207;32;34005;-68
2023/05/30 18:56:12;;;;;;;12.82;4.50;;;;;;;22.95;57.69;99710.28;4442605;32;33965;-69
2023/05/30 18:58:41;;;;;;;8.90;3.97;;;;;;;22.97;57.59;99716.38;4441186;32;33797;-70
2023/05/30 19:01:09;;;;;;;6.45;3.28;;;;;;;22.96;57.94;99716.59;4444440;32;33789;-70
2023/05/30 19:03:40;;;;;;;6.62;4.32;;;;;;;22.90;57.49;99726.34;4452751;32;35243;-69
2023/05/30 19:06:08;;;;;;;9.07;3.42;;;;;;;22.94;56.90;99729.56;4451340;32;33750;-67
2023/05/30 19:08:36;;;;;;;8.48;4.70;;;;;;;22.85;56.74;99730.69;4449561;32;35015;-68
2023/05/30 19:11:03;;;;;;;7.37;3.87;;;;;;;22.84;56.68;99726.28;4440086;32;33836;-68
2023/05/30 19:13:31;;;;;;;8.70;4.47;;;;;;;22.78;57.18;99730.62;4444730;32;33852;-67
2023/05/30 19:15:59;;;;;;;10.77;4.05;;;;;;;22.70;57.46;99730.78;4446226;32;33361;-68
2023/05/30 19:18:27;;;;;;;8.55;4.28;;;;;;;22.74;56.98;99723.88;4445916;32;34944;-69
2023/05/30 19:20:55;;;;;;;8.98;4.50;;;;;;;22.62;56.51;99733.63;4451966;32;35233;-69
2023/05/30 19:23:23;;;;;;;9.45;3.85;;;;;;;22.51;54.74;99727.63;4446632;32;34996;-67
2023/05/30 19:25:50;;;;;;;8.18;4.40;;;;;;;22.64;54.20;99734.28;4445104;32;34330;-74
2023/05/30 19:28:18;;;;;;;7.57;3.25;;;;;;;22.69;53.76;99729.06;4443192;32;33912;-72
2023/05/30 19:30:46;;;;;;;6.60;3.90;;;;;;;22.40;53.59;99735.44;4451470;32;35229;-65
2023/05/30 19:33:14;;;;;;;7.68;3.62;;;;;;;22.58;54.16;99738.62;4443503;32;34913;-70
2023/05/30 19:35:41;;;;;;;8.07;4.20;;;;;;;22.56;54.20;99743.41;4447127;32;33436;-72
2023/05/30 19:38:09;;;;;;;11.35;3.65;;;;;;;22.48;54.33;99741.66;4449544;32;34968;-68
2023/05/30 19:40:37;;;;;;;7.95;4.30;;;;;;;22.18;55.18;99750.91;4452180;32;35311;-70
2023/05/30 19:43:04;;;;;;;8.85;3.78;;;;;;;22.28;54.73;99748.75;4448128;32;34020;-71
2023/05/30 19:45:32;;;;;;;8.98;4.07;;;;;;;22.29;54.78;99748.53;4449008;32;33410;-70
2023/05/30 19:47:59;;;;;;;10.73;3.72;;;;;;;22.06;55.73;99754.09;4449091;32;32176;-73
2023/05/30 19:50:27;;;;;;;6.70;3.33;;;;;;;22.15;55.57;99754.84;4441648;32;33733;-75
2023/05/30 19:52:55;;;;;;;13.02;4.10;;;;;;;22.09;55.86;99752.88;4445293;32;33812;-71
2023/05/30 19:55:25;;;;;;;6.45;3.62;;;;;;;21.96;56.00;99742.63;4447870;32;33651;-71
2023/05/30 19:57:52;;;;;;;9.63;4.28;;;;;;;22.02;55.52;99752.78;4441690;32;33539;-69
2023/05/30 20:00:20;;;;;;;6.60;2.97;;;;;;;21.85;55.39;99748.53;4449084;32;33716;-71
2023/05/30 20:02:48;;;;;;;11.73;3.87;;;;;;;21.95;54.77;99751.81;4446499;32;34118;-74
2023/05/30 20:05:16;;;;;;;8.10;3.85;;;;;;;21.84;54.75;99753.16;4443301;32;33723;-71
2023/05/30 20:07:43;;;;;;;7.15;3.78;;;;;;;21.52;55.66;99745.31;4443609;32;33618;-71
2023/05/30 20:10:11;;;;;;;7.28;4.07;;;;;;;21.58;55.50;99752.75;4444282;32;34097;-72
2023/05/30 20:12:38;;;;;;;7.03;4.43;;;;;;;21.43;56.03;99752.72;4445444;32;34141;-72
2023/05/30 20:15:08;;;;;;;7.07;4.10;;;;;;;21.42;56.14;99753.75;4445004;32;34353;-71
2023/05/30 20:17:36;;;;;;;6.30;3.60;;;;;;;21.45;55.90;99752.56;4451302;32;34379;-72
2023/05/30 20:20:04;;;;;;;6.70;3.03;;;;;;;21.45;55.90;99752.56;4447407;32;33843;-73
2023/05/30 20:22:32;;;;;;;7.90;3.20;;;;;;;21.47;56.00;99754.03;4445561;32;33841;-73
2023/05/30 20:25:00;;;;;;;8.82;3.65;;;;;;;21.35;55.93;99759.09;4449241;32;33405;-72
2023/05/30 20:27:27;;;;;;;7.57;3.17;;;;;;;21.18;56.36;99757.50;4450416;32;33893;-72
2023/05/30 20:29:55;;;;;;;5.90;3.55;;;;;;;21.10;56.60;99760.31;4450070;32;33807;-75
2023/05/30 20:32:22;;;;;;;6.95;3.97;;;;;;;20.92;56.78;99752.44;4446242;32;33603;-72
2023/05/30 20:34:50;;;;;;;4.87;3.08;;;;;;;20.84;56.72;99747.91;4443228;32;32977;-75
2023/05/30 20:37:18;;;;;;;5.95;3.03;;;;;;;20.88;56.26;99751.13;4443825;32;33758;-70
2023/05/30 20:39:46;;;;;;;8.95;3.87;;;;;;;20.81;56.30;99755.59;4443468;32;32267;-73
2023/05/30 20:42:16;;;;;;;7.28;3.33;;;;;;;20.59;56.93;99744.50;4439387;32;34049;-72
2023/05/30 20:44:44;;;;;;;6.80;2.95;;;;;;;20.70;56.75;99748.66;4439944;32;32656;-76
2023/05/30 20:47:12;;;;;;;5.68;3.17;;;;;;;20.74;56.49;99750.03;4448426;32;33803;-75
2023/05/30 20:49:39;;;;;;;7.15;3.80;;;;;;;20.82;56.26;99757.28;4449818;32;34521;-75
2023/05/30 20:52:07;;;;;;;5.37;2.17;;;;;;;20.63;56.81;99755.88;4437312;32;33961;-71
2023/05/30 20:54:35;;;;;;;7.68;2.95;;;;;;;20.57;56.97;99757.41;4447124;32;33798;-73
2023/05/30 20:57:13;;;;;;;16.12;3.67;;;;;;;20.41;57.31;99758.31;4449349;32;34809;-74
2023/05/30 20:59:40;;;;;;;8.82;4.03;;;;;;;20.39;57.27;99764.97;4445622;32;34022;-70
2023/05/30 21:02:08;;;;;;;11.07;4.55;;;;;;;20.25;57.19;99761.12;4444152;32;32946;-71
2023/05/30 21:04:36;;;;;;;6.18;3.42;;;;;;;20.40;56.64;99762.06;4449371;32;33667;-73
2023/05/30 21:07:04;;;;;;;6.18;3.12;;;;;;;20.45;56.36;99756.97;4444465;32;34684;-70
2023/05/30 21:09:31;;;;;;;6.75;3.65;;;;;;;20.31;56.98;99765.84;4452442;32;35164;-70
2023/05/30 21:11:59;;;;;;;9.55;3.62;;;;;;;20.41;57.20;99763.75;4446961;32;34185;-70
2023/05/30 21:14:26;;;;;;;5.62;3.10;;;;;;;20.58;57.17;99770.00;4446937;32;33563;-72
2023/05/30 21:16:54;;;;;;;7.55;3.15;;;;;;;20.53;57.80;99768.84;4451273;32;32886;-71
2023/05/30 21:19:21;;;;;;;6.65;2.83;;;;;;;20.70;57.50;99776.72;4446071;32;34696;-72
2023/05/30 21:21:49;;;;;;;8.20;4.12;;;;;;;20.85;56.85;99767.78;4443735;32;33913;-69
2023/05/30 21:24:17;;;;;;;5.62;2.60;;;;;;;20.73;57.27;99775.50;4440031;32;33465;-72
2023/05/30 21:26:44;;;;;;;5.75;3.67;;;;;;;20.84;56.79;99768.84;4438743;32;33841;-68
2023/05/30 21:29:12;;;;;;;7.50;4.03;;;;;;;20.96;56.18;99774.69;4449231;32;34858;-71
2023/05/30 21:31:40;;;;;;;9.45;4.28;;;;;;;20.97;56.43;99769.06;4447837;32;34131;-71
2023/05/30 21:34:08;;;;;;;8.23;3.72;;;;;;;21.03;56.25;99773.78;4445603;32;33650;-71
2023/05/30 21:36:36;;;;;;;6.35;3.67;;;;;;;21.14;55.61;99764.34;4442375;32;34594;-73
2023/05/30 21:39:06;;;;;;;9.80;4.03;;;;;;;21.04;55.47;99772.75;4445380;32;33912;-70
2023/05/30 21:41:34;;;;;;;5.55;3.40;;;;;;;21.13;55.36;99771.66;4449634;32;32781;-70
2023/05/30 21:44:02;;;;;;;6.65;3.53;;;;;;;20.70;55.01;99771.28;4450244;32;33658;-71
2023/05/30 21:46:30;;;;;;;8.93;4.22;;;;;;;20.87;55.18;99777.47;4449486;32;32946;-70
2023/05/30 21:48:57;;;;;;;7.72;3.83;;;;;;;20.58;57.26;99771.87;4451333;32;33841;-68
2023/05/30 21:51:25;;;;;;;5.93;3.35;;;;;;;20.80;56.82;99775.62;4448530;32;35014;-68
2023/05/30 21:54:02;;;;;;;10.88;4.80;;;;;;;21.11;56.34;99770.16;4444733;32;35252;-71
2023/05/30 21:56:30;;;;;;;8.00;4.93;;;;;;;20.29;58.44;99775.19;4452239;32;33723;-69
2023/05/30 21:58:58;;;;;;;7.75;3.87;;;;;;;21.09;55.46;99767.63;4449491;32;34814;-69
2023/05/30 22:01:26;;;;;;;10.30;4.32;;;;;;;21.26;55.57;99772.94;4439976;32;34041;-71
2023/05/30 22:03:54;;;;;;;7.05;3.28;;;;;;;21.25;56.05;99777.53;4451998;32;32393;-69
2023/05/30 22:06:22;;;;;;;5.70;3.22;;;;;;;21.19;56.61;99767.38;4437266;32;33851;-70
2023/05/30 22:08:50;;;;;;;11.45;3.95;;;;;;;21.35;56.39;99772.72;4445087;32;34075;-69
2023/05/30 22:11:18;;;;;;;13.62;3.80;;;;;;;21.51;56.00;99784.47;4444606;32;34106;-70
2023/05/30 22:13:46;;;;;;;8.10;3.85;;;;;;;21.09;57.37;99777.63;4448734;32;33924;-69
2023/05/30 22:16:13;;;;;;;7.37;3.62;;;;;;;21.25;57.09;99779.37;4447105;32;34867;-69
2023/05/30 22:18:41;;;;;;;5.80;2.90;;;;;;;21.49;55.04;99792.81;4449464;32;33736;-70
2023/05/30 22:21:09;;;;;;;7.85;4.10;;;;;;;21.11;55.20;99779.16;4446840;32;35238;-69
2023/05/30 22:23:36;;;;;;;7.93;3.70;;;;;;;21.27;55.47;99780.91;4444156;32;34505;-71
2023/05/30 22:26:04;;;;;;;8.13;3.45;;;;;;;21.36;55.46;99781.72;4445490;32;33753;-70
2023/05/30 22:28:32;;;;;;;7.00;3.78;;;;;;;21.30;55.76;99782.41;4450695;32;33861;-69
2023/05/30 22:30:59;;;;;;;5.65;3.15;;;;;;;21.26;56.13;99775.66;4445405;32;33019;-70
2023/05/30 22:33:27;;;;;;;7.45;3.35;;;;;;;21.23;55.97;99779.59;4447806;32;33336;-69